createdAt,value
2018-07-28T19:17:57.009Z,21.30
2018-07-28T19:20:34.168Z,14.60
2018-07-28T19:23:09.317Z,11.20
2018-07-28T19:25:39.453Z,12.00
2018-07-28T19:28:14.010Z,12.10
2018-07-28T19:30:42.526Z,12.10
2018-07-28T19:33:11.637Z,10.80
2018-07-28T19:35:46.428Z,14.47
2018-07-28T19:38:14.833Z,11.17
2018-07-28T19:40:43.221Z,12.03
2018-07-28T19:43:11.581Z,11.80
2018-07-28T19:45:40.519Z,9.80
2018-07-28T19:48:09.650Z,11.20
2018-07-28T19:50:38.130Z,11.80
2018-07-28T19:53:08.859Z,12.63
2018-07-28T19:55:39.733Z,12.87
2018-07-28T19:58:09.157Z,12.70
2018-07-28T20:00:39.566Z,13.70
2018-07-28T20:03:08.893Z,12.90
2018-07-28T20:05:38.117Z,13.00
2018-07-28T20:08:07.798Z,12.10
2018-07-28T20:10:52.824Z,11.57
2018-07-28T20:13:22.316Z,13.23
2018-07-28T20:15:50.723Z,15.63
2018-07-28T20:18:19.084Z,14.17
2018-07-28T20:20:47.613Z,12.57
2018-07-28T20:23:16.016Z,12.10
2018-07-28T20:25:44.517Z,15.70
2018-07-28T20:28:12.902Z,14.10
2018-07-28T20:30:42.873Z,15.73
2018-07-28T20:33:11.238Z,14.70
2018-07-28T20:35:39.659Z,12.93
2018-07-28T20:38:08.195Z,14.20
2018-07-28T20:40:37.944Z,13.33
2018-07-28T20:43:08.316Z,13.27
2018-07-28T20:45:37.961Z,13.50
2018-07-28T20:48:06.549Z,16.90
2018-07-28T20:50:36.861Z,13.60
2018-07-28T20:53:05.305Z,14.30
2018-07-28T20:55:34.701Z,13.70
2018-07-28T20:58:04.091Z,12.13
2018-07-28T21:00:32.458Z,12.37
2018-07-28T21:03:00.979Z,13.67
2018-07-28T21:05:36.062Z,15.83
2018-07-28T21:08:04.550Z,14.70
2018-07-28T21:10:32.936Z,16.67
2018-07-28T21:13:01.479Z,16.00
2018-07-28T21:15:29.845Z,15.43
2018-07-28T21:17:58.276Z,15.30
2018-07-28T21:20:26.652Z,15.40
2018-07-28T21:22:55.055Z,15.63
2018-07-28T21:25:24.446Z,17.03
2018-07-28T21:27:53.087Z,16.33
2018-07-28T21:30:23.410Z,14.00
2018-07-28T21:32:52.910Z,14.50
2018-07-28T21:35:22.370Z,12.80
2018-07-28T21:37:52.421Z,14.00
2018-07-28T21:40:20.784Z,15.13
2018-07-28T21:42:49.181Z,15.50
2018-07-28T21:45:17.650Z,14.23
2018-07-28T21:47:46.026Z,16.23
2018-07-28T21:50:14.422Z,16.53
2018-07-28T21:52:42.783Z,13.80
2018-07-28T21:55:11.210Z,17.13
2018-07-28T21:57:39.767Z,15.80
2018-07-28T22:00:09.611Z,17.30
2018-07-28T22:02:39.442Z,15.83
2018-07-28T22:05:08.890Z,17.30
2018-07-28T22:07:37.609Z,17.07
2018-07-28T22:10:07.188Z,18.23
2018-07-28T22:12:36.000Z,17.70
2018-07-28T22:15:08.140Z,15.87
2018-07-28T22:17:36.998Z,16.00
2018-07-28T22:20:11.580Z,16.90
2018-07-28T22:22:47.977Z,18.03
2018-07-28T22:25:16.447Z,19.00
2018-07-28T22:27:44.949Z,21.30
2018-07-28T22:30:14.344Z,17.70
2018-07-28T22:32:42.725Z,20.57
2018-07-28T22:35:12.023Z,18.17
2018-07-28T22:37:40.419Z,19.97
2018-07-28T22:40:09.709Z,18.90
2018-07-28T22:42:43.826Z,18.83
2018-07-28T22:45:13.213Z,20.27
2018-07-28T22:47:42.619Z,22.10
2018-07-28T22:50:11.034Z,21.40
2018-07-28T22:52:39.673Z,20.40
2018-07-28T22:55:09.102Z,20.40
2018-07-28T22:57:38.565Z,20.57
2018-07-28T23:00:09.345Z,19.13
2018-07-28T23:02:38.687Z,18.30
2018-07-28T23:05:08.717Z,17.47
2018-07-28T23:07:37.765Z,20.80
2018-07-28T23:10:08.273Z,20.20
2018-07-28T23:12:38.320Z,21.17
2018-07-28T23:15:07.773Z,20.10
2018-07-28T23:17:38.482Z,20.10
2018-07-28T23:20:08.551Z,21.80
2018-07-28T23:22:37.678Z,22.37
2018-07-28T23:25:08.081Z,21.93
2018-07-28T23:27:36.903Z,22.37
2018-07-28T23:30:10.225Z,21.67
2018-07-28T23:32:40.088Z,22.77
2018-07-28T23:35:09.108Z,23.20
2018-07-28T23:37:37.761Z,23.23
2018-07-28T23:40:06.449Z,21.53
2018-07-28T23:42:34.829Z,21.37
2018-07-28T23:45:03.245Z,23.50
2018-07-28T23:47:32.469Z,22.77
2018-07-28T23:50:01.958Z,20.43
2018-07-28T23:52:30.350Z,21.07
2018-07-28T23:54:59.811Z,19.60
2018-07-28T23:57:28.289Z,20.90
2018-07-28T23:59:56.950Z,21.60
